Avon Lake, Iowa
Current Conditions -  °F | °C
As of 8:54 AM on Wednesday 26 Nov 2014 (Local Time) from KDSM Reporting Station
Light Snow Light Snow  
Wind Chill: 22°   Ceiling: 800
Heat Index: 30°   Visibility: 3mi
Dew Point: 26°   Wind: 9mph
Humidity: 85%   Direction: 90°E
Pressure: 29.9"   Gusts: NA
Location:  41.4707°N, 93.4797°W
Report Text: KDSM 261454Z 09008KT 3SM R31/5000VP6000FT -SN BR OVC008 M01/M03 A2990 RMK AO2 FZDZE23SNB03 SLP135 P0000 60001 I1000 I3002 T10111033 53008
Loading
Personal Weather Stations






























Interactive Weather Map New forecast layout! Learn more

10-Day Weather Forecast

Advertisements
Track Severe Weather on mobile